sensor_id;sensor_type;location;lat;lon;timestamp;temperature;humidity
78467;SHT31;67759;51.972;5.650;2024-02-23T00:00:45;9.3;61.2
78467;SHT31;67759;51.972;5.650;2024-02-23T00:03:14;9.3;61.0
78467;SHT31;67759;51.972;5.650;2024-02-23T00:05:43;9.3;62.1
78467;SHT31;67759;51.972;5.650;2024-02-23T00:08:13;9.2;62.7
78467;SHT31;67759;51.972;5.650;2024-02-23T00:10:42;9.3;63.1
78467;SHT31;67759;51.972;5.650;2024-02-23T00:13:11;9.3;63.3
78467;SHT31;67759;51.972;5.650;2024-02-23T00:15:39;9.3;63.6
78467;SHT31;67759;51.972;5.650;2024-02-23T00:18:10;9.3;63.6
78467;SHT31;67759;51.972;5.650;2024-02-23T00:20:39;9.4;63.7
78467;SHT31;67759;51.972;5.650;2024-02-23T00:23:08;9.4;63.4
78467;SHT31;67759;51.972;5.650;2024-02-23T00:25:36;9.4;63.5
78467;SHT31;67759;51.972;5.650;2024-02-23T00:28:05;9.4;63.3
78467;SHT31;67759;51.972;5.650;2024-02-23T00:30:34;9.5;63.4
78467;SHT31;67759;51.972;5.650;2024-02-23T00:33:02;9.5;63.7
78467;SHT31;67759;51.972;5.650;2024-02-23T00:35:31;9.5;63.5
78467;SHT31;67759;51.972;5.650;2024-02-23T00:38:01;9.6;63.0
78467;SHT31;67759;51.972;5.650;2024-02-23T00:40:30;9.8;62.6
78467;SHT31;67759;51.972;5.650;2024-02-23T00:42:59;10.0;61.3
78467;SHT31;67759;51.972;5.650;2024-02-23T00:45:30;10.2;60.1
78467;SHT31;67759;51.972;5.650;2024-02-23T00:47:58;10.3;58.8
78467;SHT31;67759;51.972;5.650;2024-02-23T00:50:27;10.2;58.3
78467;SHT31;67759;51.972;5.650;2024-02-23T00:52:56;10.0;59.1
78467;SHT31;67759;51.972;5.650;2024-02-23T00:55:24;9.7;58.2
78467;SHT31;67759;51.972;5.650;2024-02-23T00:57:53;9.4;59.3
78467;SHT31;67759;51.972;5.650;2024-02-23T01:00:22;9.2;59.9
78467;SHT31;67759;51.972;5.650;2024-02-23T01:02:51;9.1;59.6
78467;SHT31;67759;51.972;5.650;2024-02-23T01:05:20;9.0;60.2
78467;SHT31;67759;51.972;5.650;2024-02-23T01:07:48;8.9;60.7
78467;SHT31;67759;51.972;5.650;2024-02-23T01:10:17;8.8;61.4
78467;SHT31;67759;51.972;5.650;2024-02-23T01:12:48;8.8;62.4
78467;SHT31;67759;51.972;5.650;2024-02-23T01:15:16;8.8;63.4
78467;SHT31;67759;51.972;5.650;2024-02-23T01:17:46;8.8;63.8
78467;SHT31;67759;51.972;5.650;2024-02-23T01:20:15;8.9;64.2
78467;SHT31;67759;51.972;5.650;2024-02-23T01:22:43;9.0;64.5
78467;SHT31;67759;51.972;5.650;2024-02-23T01:25:12;9.1;64.5
78467;SHT31;67759;51.972;5.650;2024-02-23T01:27:42;9.2;63.5
78467;SHT31;67759;51.972;5.650;2024-02-23T01:30:11;9.2;63.1
78467;SHT31;67759;51.972;5.650;2024-02-23T01:32:42;9.2;62.8
78467;SHT31;67759;51.972;5.650;2024-02-23T01:35:10;9.2;62.7
78467;SHT31;67759;51.972;5.650;2024-02-23T01:37:39;9.2;62.7
78467;SHT31;67759;51.972;5.650;2024-02-23T01:40:11;9.2;62.8
78467;SHT31;67759;51.972;5.650;2024-02-23T01:42:40;9.2;62.6
78467;SHT31;67759;51.972;5.650;2024-02-23T01:45:09;9.3;62.5
78467;SHT31;67759;51.972;5.650;2024-02-23T01:47:38;9.3;62.3
78467;SHT31;67759;51.972;5.650;2024-02-23T01:50:08;9.3;62.2
78467;SHT31;67759;51.972;5.650;2024-02-23T01:52:39;9.4;62.1
78467;SHT31;67759;51.972;5.650;2024-02-23T01:55:09;9.4;61.8
78467;SHT31;67759;51.972;5.650;2024-02-23T01:57:38;9.4;61.6
78467;SHT31;67759;51.972;5.650;2024-02-23T02:00:07;9.5;61.3
78467;SHT31;67759;51.972;5.650;2024-02-23T02:02:39;9.5;61.1
78467;SHT31;67759;51.972;5.650;2024-02-23T02:05:11;9.6;61.0
78467;SHT31;67759;51.972;5.650;2024-02-23T02:07:40;9.6;60.7
78467;SHT31;67759;51.972;5.650;2024-02-23T02:10:10;9.7;60.5
78467;SHT31;67759;51.972;5.650;2024-02-23T02:12:39;9.7;60.1
78467;SHT31;67759;51.972;5.650;2024-02-23T02:15:08;9.8;59.7
78467;SHT31;67759;51.972;5.650;2024-02-23T02:17:37;9.8;59.8
78467;SHT31;67759;51.972;5.650;2024-02-23T02:20:11;9.8;59.5
78467;SHT31;67759;51.972;5.650;2024-02-23T02:22:41;9.9;59.2
78467;SHT31;67759;51.972;5.650;2024-02-23T02:25:13;9.9;58.8
78467;SHT31;67759;51.972;5.650;2024-02-23T02:27:42;9.9;58.7
78467;SHT31;67759;51.972;5.650;2024-02-23T02:30:12;10.0;58.9
78467;SHT31;67759;51.972;5.650;2024-02-23T02:32:41;10.0;58.6
78467;SHT31;67759;51.972;5.650;2024-02-23T02:35:11;10.0;58.6
78467;SHT31;67759;51.972;5.650;2024-02-23T02:37:40;10.0;58.7
78467;SHT31;67759;51.972;5.650;2024-02-23T02:40:12;10.0;58.4
78467;SHT31;67759;51.972;5.650;2024-02-23T02:42:41;10.1;58.1
78467;SHT31;67759;51.972;5.650;2024-02-23T02:45:12;10.1;58.1
78467;SHT31;67759;51.972;5.650;2024-02-23T02:47:40;10.1;58.1
78467;SHT31;67759;51.972;5.650;2024-02-23T02:50:10;10.0;58.0
78467;SHT31;67759;51.972;5.650;2024-02-23T02:52:40;10.0;58.0
78467;SHT31;67759;51.972;5.650;2024-02-23T02:55:10;10.0;58.2
78467;SHT31;67759;51.972;5.650;2024-02-23T02:57:39;10.1;58.1
78467;SHT31;67759;51.972;5.650;2024-02-23T03:00:10;10.1;58.0
78467;SHT31;67759;51.972;5.650;2024-02-23T03:02:39;10.1;57.8
78467;SHT31;67759;51.972;5.650;2024-02-23T03:05:08;10.2;57.7
78467;SHT31;67759;51.972;5.650;2024-02-23T03:07:37;10.2;57.5
78467;SHT31;67759;51.972;5.650;2024-02-23T03:10:07;10.3;56.8
78467;SHT31;67759;51.972;5.650;2024-02-23T03:12:35;10.3;56.3
78467;SHT31;67759;51.972;5.650;2024-02-23T03:15:05;10.3;56.2
78467;SHT31;67759;51.972;5.650;2024-02-23T03:17:36;10.4;56.2
78467;SHT31;67759;51.972;5.650;2024-02-23T03:20:05;10.4;56.0
78467;SHT31;67759;51.972;5.650;2024-02-23T03:22:35;10.4;55.6
78467;SHT31;67759;51.972;5.650;2024-02-23T03:25:04;10.3;55.8
78467;SHT31;67759;51.972;5.650;2024-02-23T03:27:37;10.3;56.0
78467;SHT31;67759;51.972;5.650;2024-02-23T03:30:07;10.3;56.3
78467;SHT31;67759;51.972;5.650;2024-02-23T03:32:36;10.3;56.7
78467;SHT31;67759;51.972;5.650;2024-02-23T03:35:06;10.3;56.6
78467;SHT31;67759;51.972;5.650;2024-02-23T03:37:35;10.3;56.4
78467;SHT31;67759;51.972;5.650;2024-02-23T03:40:04;10.3;56.4
78467;SHT31;67759;51.972;5.650;2024-02-23T03:42:33;10.3;56.5
78467;SHT31;67759;51.972;5.650;2024-02-23T03:45:02;10.3;56.6
78467;SHT31;67759;51.972;5.650;2024-02-23T03:47:30;10.2;56.5
78467;SHT31;67759;51.972;5.650;2024-02-23T03:49:59;10.2;56.5
78467;SHT31;67759;51.972;5.650;2024-02-23T03:52:27;10.2;56.3
78467;SHT31;67759;51.972;5.650;2024-02-23T03:54:56;10.1;56.6
78467;SHT31;67759;51.972;5.650;2024-02-23T03:57:24;10.1;56.9
78467;SHT31;67759;51.972;5.650;2024-02-23T03:59:53;10.1;56.8
78467;SHT31;67759;51.972;5.650;2024-02-23T04:02:22;10.0;57.0
78467;SHT31;67759;51.972;5.650;2024-02-23T04:04:51;10.0;57.2
78467;SHT31;67759;51.972;5.650;2024-02-23T04:07:20;10.0;57.2
78467;SHT31;67759;51.972;5.650;2024-02-23T04:09:52;9.9;57.6
78467;SHT31;67759;51.972;5.650;2024-02-23T04:12:21;10.0;57.9
78467;SHT31;67759;51.972;5.650;2024-02-23T04:14:50;10.0;57.8
78467;SHT31;67759;51.972;5.650;2024-02-23T04:17:21;10.2;57.4
78467;SHT31;67759;51.972;5.650;2024-02-23T04:19:52;10.3;56.6
78467;SHT31;67759;51.972;5.650;2024-02-23T04:22:21;10.4;56.2
78467;SHT31;67759;51.972;5.650;2024-02-23T04:24:51;10.5;55.6
78467;SHT31;67759;51.972;5.650;2024-02-23T04:27:19;10.4;55.3
78467;SHT31;67759;51.972;5.650;2024-02-23T04:29:48;10.4;55.5
78467;SHT31;67759;51.972;5.650;2024-02-23T04:32:17;10.3;55.8
78467;SHT31;67759;51.972;5.650;2024-02-23T04:34:46;10.2;56.5
78467;SHT31;67759;51.972;5.650;2024-02-23T04:37:15;10.2;56.2
78467;SHT31;67759;51.972;5.650;2024-02-23T04:39:45;10.2;56.5
78467;SHT31;67759;51.972;5.650;2024-02-23T04:42:13;10.1;56.6
78467;SHT31;67759;51.972;5.650;2024-02-23T04:44:43;10.1;56.9
78467;SHT31;67759;51.972;5.650;2024-02-23T04:47:12;10.1;56.7
78467;SHT31;67759;51.972;5.650;2024-02-23T04:49:40;10.1;57.0
78467;SHT31;67759;51.972;5.650;2024-02-23T04:52:09;10.1;56.8
78467;SHT31;67759;51.972;5.650;2024-02-23T04:54:39;10.1;57.0
78467;SHT31;67759;51.972;5.650;2024-02-23T04:57:08;10.1;57.1
78467;SHT31;67759;51.972;5.650;2024-02-23T04:59:36;10.1;57.0
78467;SHT31;67759;51.972;5.650;2024-02-23T05:02:05;10.1;56.8
78467;SHT31;67759;51.972;5.650;2024-02-23T05:04:34;10.1;56.7
78467;SHT31;67759;51.972;5.650;2024-02-23T05:07:02;10.1;56.8
78467;SHT31;67759;51.972;5.650;2024-02-23T05:09:31;10.1;56.7
78467;SHT31;67759;51.972;5.650;2024-02-23T05:12:01;10.2;56.8
78467;SHT31;67759;51.972;5.650;2024-02-23T05:14:32;10.2;56.6
78467;SHT31;67759;51.972;5.650;2024-02-23T05:17:00;10.2;56.5
78467;SHT31;67759;51.972;5.650;2024-02-23T05:19:30;10.3;56.3
78467;SHT31;67759;51.972;5.650;2024-02-23T05:21:58;10.3;56.2
78467;SHT31;67759;51.972;5.650;2024-02-23T05:24:30;10.3;56.3
78467;SHT31;67759;51.972;5.650;2024-02-23T05:27:00;10.4;55.9
78467;SHT31;67759;51.972;5.650;2024-02-23T05:29:30;10.4;56.0
78467;SHT31;67759;51.972;5.650;2024-02-23T05:31:59;10.4;55.8
78467;SHT31;67759;51.972;5.650;2024-02-23T05:34:29;10.5;55.8
78467;SHT31;67759;51.972;5.650;2024-02-23T05:36:58;10.5;55.8
78467;SHT31;67759;51.972;5.650;2024-02-23T05:39:28;10.6;55.4
78467;SHT31;67759;51.972;5.650;2024-02-23T05:41:57;10.7;55.0
78467;SHT31;67759;51.972;5.650;2024-02-23T05:44:26;10.7;54.8
78467;SHT31;67759;51.972;5.650;2024-02-23T05:46:55;10.7;54.3
78467;SHT31;67759;51.972;5.650;2024-02-23T05:49:23;10.7;54.4
78467;SHT31;67759;51.972;5.650;2024-02-23T05:51:52;10.8;54.2
78467;SHT31;67759;51.972;5.650;2024-02-23T05:54:21;10.8;54.5
78467;SHT31;67759;51.972;5.650;2024-02-23T05:56:50;10.8;54.5
78467;SHT31;67759;51.972;5.650;2024-02-23T05:59:19;10.8;54.2
78467;SHT31;67759;51.972;5.650;2024-02-23T06:01:47;10.9;54.0
78467;SHT31;67759;51.972;5.650;2024-02-23T06:04:16;10.9;53.9
78467;SHT31;67759;51.972;5.650;2024-02-23T06:06:48;11.0;54.1
78467;SHT31;67759;51.972;5.650;2024-02-23T06:09:18;11.1;53.7
78467;SHT31;67759;51.972;5.650;2024-02-23T06:11:51;11.3;53.1
78467;SHT31;67759;51.972;5.650;2024-02-23T06:14:20;11.3;52.1
78467;SHT31;67759;51.972;5.650;2024-02-23T06:16:49;11.4;52.1
78467;SHT31;67759;51.972;5.650;2024-02-23T06:19:18;11.4;51.8
78467;SHT31;67759;51.972;5.650;2024-02-23T06:21:49;11.3;52.2
78467;SHT31;67759;51.972;5.650;2024-02-23T06:24:18;11.3;52.0
78467;SHT31;67759;51.972;5.650;2024-02-23T06:26:47;11.3;52.5
78467;SHT31;67759;51.972;5.650;2024-02-23T06:29:17;11.3;52.3
78467;SHT31;67759;51.972;5.650;2024-02-23T06:31:46;11.3;51.8
78467;SHT31;67759;51.972;5.650;2024-02-23T06:34:16;11.3;52.1
78467;SHT31;67759;51.972;5.650;2024-02-23T06:36:44;11.3;52.5
78467;SHT31;67759;51.972;5.650;2024-02-23T06:39:13;11.4;51.9
78467;SHT31;67759;51.972;5.650;2024-02-23T06:41:44;11.4;51.3
78467;SHT31;67759;51.972;5.650;2024-02-23T06:44:13;11.4;51.3
78467;SHT31;67759;51.972;5.650;2024-02-23T06:46:41;11.4;51.8
78467;SHT31;67759;51.972;5.650;2024-02-23T06:49:10;11.4;52.0
78467;SHT31;67759;51.972;5.650;2024-02-23T06:51:39;11.4;51.7
78467;SHT31;67759;51.972;5.650;2024-02-23T06:54:08;11.4;52.1
78467;SHT31;67759;51.972;5.650;2024-02-23T06:56:38;11.4;51.6
78467;SHT31;67759;51.972;5.650;2024-02-23T06:59:06;11.4;51.4
78467;SHT31;67759;51.972;5.650;2024-02-23T07:01:35;11.4;51.7
78467;SHT31;67759;51.972;5.650;2024-02-23T07:04:03;11.4;51.7
78467;SHT31;67759;51.972;5.650;2024-02-23T07:06:32;11.4;51.1
78467;SHT31;67759;51.972;5.650;2024-02-23T07:09:02;11.4;51.5
78467;SHT31;67759;51.972;5.650;2024-02-23T07:11:31;11.5;52.0
78467;SHT31;67759;51.972;5.650;2024-02-23T07:14:00;11.6;51.6
78467;SHT31;67759;51.972;5.650;2024-02-23T07:16:29;11.6;50.4
78467;SHT31;67759;51.972;5.650;2024-02-23T07:18:58;11.6;50.2
78467;SHT31;67759;51.972;5.650;2024-02-23T07:21:27;11.7;50.6
78467;SHT31;67759;51.972;5.650;2024-02-23T07:23:55;11.7;50.4
78467;SHT31;67759;51.972;5.650;2024-02-23T07:26:26;11.7;49.9
78467;SHT31;67759;51.972;5.650;2024-02-23T07:28:55;11.7;50.3
78467;SHT31;67759;51.972;5.650;2024-02-23T07:31:24;11.8;50.4
78467;SHT31;67759;51.972;5.650;2024-02-23T07:33:52;11.8;49.6
78467;SHT31;67759;51.972;5.650;2024-02-23T07:36:21;11.8;49.9
78467;SHT31;67759;51.972;5.650;2024-02-23T07:38:49;11.8;49.9
78467;SHT31;67759;51.972;5.650;2024-02-23T07:41:18;11.8;49.6
78467;SHT31;67759;51.972;5.650;2024-02-23T07:43:47;11.7;50.2
78467;SHT31;67759;51.972;5.650;2024-02-23T07:46:15;11.7;49.5
78467;SHT31;67759;51.972;5.650;2024-02-23T07:48:44;11.7;49.7
78467;SHT31;67759;51.972;5.650;2024-02-23T07:51:14;11.7;49.8
78467;SHT31;67759;51.972;5.650;2024-02-23T07:53:45;11.8;50.6
78467;SHT31;67759;51.972;5.650;2024-02-23T07:56:15;11.8;49.9
78467;SHT31;67759;51.972;5.650;2024-02-23T07:58:44;11.9;49.5
78467;SHT31;67759;51.972;5.650;2024-02-23T08:01:15;12.1;49.0
78467;SHT31;67759;51.972;5.650;2024-02-23T08:03:45;12.3;49.2
78467;SHT31;67759;51.972;5.650;2024-02-23T08:06:14;12.4;47.8
78467;SHT31;67759;51.972;5.650;2024-02-23T08:08:42;12.4;47.3
78467;SHT31;67759;51.972;5.650;2024-02-23T08:11:11;12.4;47.5
78467;SHT31;67759;51.972;5.650;2024-02-23T08:13:40;12.4;47.3
78467;SHT31;67759;51.972;5.650;2024-02-23T08:16:11;12.3;47.2
78467;SHT31;67759;51.972;5.650;2024-02-23T08:18:39;12.3;47.7
78467;SHT31;67759;51.972;5.650;2024-02-23T08:21:09;12.3;47.4
78467;SHT31;67759;51.972;5.650;2024-02-23T08:23:39;12.3;48.2
78467;SHT31;67759;51.972;5.650;2024-02-23T08:26:08;12.3;48.1
78467;SHT31;67759;51.972;5.650;2024-02-23T08:28:36;12.3;48.0
78467;SHT31;67759;51.972;5.650;2024-02-23T08:31:05;12.2;48.1
78467;SHT31;67759;51.972;5.650;2024-02-23T08:33:33;12.2;48.1
78467;SHT31;67759;51.972;5.650;2024-02-23T08:36:02;12.3;48.5
78467;SHT31;67759;51.972;5.650;2024-02-23T08:38:32;12.3;48.0
78467;SHT31;67759;51.972;5.650;2024-02-23T08:41:00;12.3;48.1
78467;SHT31;67759;51.972;5.650;2024-02-23T08:43:29;12.3;47.9
78467;SHT31;67759;51.972;5.650;2024-02-23T08:45:59;12.4;48.7
78467;SHT31;67759;51.972;5.650;2024-02-23T08:48:27;12.4;47.9
78467;SHT31;67759;51.972;5.650;2024-02-23T08:50:56;12.5;47.9
78467;SHT31;67759;51.972;5.650;2024-02-23T08:53:25;12.6;47.5
78467;SHT31;67759;51.972;5.650;2024-02-23T08:55:54;12.6;46.9
78467;SHT31;67759;51.972;5.650;2024-02-23T08:58:24;12.6;47.3
78467;SHT31;67759;51.972;5.650;2024-02-23T09:00:52;12.6;47.2
78467;SHT31;67759;51.972;5.650;2024-02-23T09:03:21;12.6;47.3
78467;SHT31;67759;51.972;5.650;2024-02-23T09:05:50;12.6;47.3
78467;SHT31;67759;51.972;5.650;2024-02-23T09:08:18;12.6;47.0
78467;SHT31;67759;51.972;5.650;2024-02-23T09:10:47;12.6;47.0
78467;SHT31;67759;51.972;5.650;2024-02-23T09:13:15;12.6;47.0
78467;SHT31;67759;51.972;5.650;2024-02-23T09:15:44;12.5;47.2
78467;SHT31;67759;51.972;5.650;2024-02-23T09:18:12;12.5;47.1
78467;SHT31;67759;51.972;5.650;2024-02-23T09:20:41;12.5;47.5
78467;SHT31;67759;51.972;5.650;2024-02-23T09:23:10;12.5;47.4
78467;SHT31;67759;51.972;5.650;2024-02-23T09:25:39;12.5;47.8
78467;SHT31;67759;51.972;5.650;2024-02-23T09:28:08;12.5;47.8
78467;SHT31;67759;51.972;5.650;2024-02-23T09:30:37;12.6;47.8
78467;SHT31;67759;51.972;5.650;2024-02-23T09:33:06;12.6;48.4
78467;SHT31;67759;51.972;5.650;2024-02-23T09:35:35;12.7;48.0
78467;SHT31;67759;51.972;5.650;2024-02-23T09:38:04;12.7;47.8
78467;SHT31;67759;51.972;5.650;2024-02-23T09:40:33;12.8;47.5
78467;SHT31;67759;51.972;5.650;2024-02-23T09:43:02;12.8;47.7
78467;SHT31;67759;51.972;5.650;2024-02-23T09:45:31;12.8;47.2
78467;SHT31;67759;51.972;5.650;2024-02-23T09:48:09;12.9;47.5
78467;SHT31;67759;51.972;5.650;2024-02-23T09:50:41;12.9;47.9
78467;SHT31;67759;51.972;5.650;2024-02-23T09:53:13;13.1;48.2
78467;SHT31;67759;51.972;5.650;2024-02-23T09:55:47;13.3;47.3
78467;SHT31;67759;51.972;5.650;2024-02-23T09:58:18;13.4;47.3
78467;SHT31;67759;51.972;5.650;2024-02-23T10:00:50;13.3;47.9
78467;SHT31;67759;51.972;5.650;2024-02-23T10:03:18;13.2;48.3
78467;SHT31;67759;51.972;5.650;2024-02-23T10:05:47;13.0;48.7
78467;SHT31;67759;51.972;5.650;2024-02-23T10:08:16;12.9;49.9
78467;SHT31;67759;51.972;5.650;2024-02-23T10:10:46;12.8;50.0
78467;SHT31;67759;51.972;5.650;2024-02-23T10:13:20;12.8;50.7
78467;SHT31;67759;51.972;5.650;2024-02-23T10:15:48;12.7;51.2
78467;SHT31;67759;51.972;5.650;2024-02-23T10:18:17;12.7;50.9
78467;SHT31;67759;51.972;5.650;2024-02-23T10:20:46;12.7;50.8
78467;SHT31;67759;51.972;5.650;2024-02-23T10:23:17;12.7;50.6
78467;SHT31;67759;51.972;5.650;2024-02-23T10:25:46;12.7;50.4
78467;SHT31;67759;51.972;5.650;2024-02-23T10:28:17;12.6;50.5
78467;SHT31;67759;51.972;5.650;2024-02-23T10:30:49;12.6;50.8
78467;SHT31;67759;51.972;5.650;2024-02-23T10:33:22;12.6;51.1
78467;SHT31;67759;51.972;5.650;2024-02-23T10:35:55;12.6;50.9
78467;SHT31;67759;51.972;5.650;2024-02-23T10:38:26;12.7;50.5
78467;SHT31;67759;51.972;5.650;2024-02-23T10:40:55;12.7;50.4
78467;SHT31;67759;51.972;5.650;2024-02-23T10:43:33;12.7;50.2
78467;SHT31;67759;51.972;5.650;2024-02-23T10:46:03;12.7;49.9
78467;SHT31;67759;51.972;5.650;2024-02-23T10:48:36;12.8;50.0
78467;SHT31;67759;51.972;5.650;2024-02-23T10:51:07;12.8;50.3
78467;SHT31;67759;51.972;5.650;2024-02-23T10:53:36;12.9;50.2
78467;SHT31;67759;51.972;5.650;2024-02-23T10:56:07;12.9;49.2
78467;SHT31;67759;51.972;5.650;2024-02-23T10:58:37;12.9;49.3
78467;SHT31;67759;51.972;5.650;2024-02-23T11:01:07;13.0;48.9
78467;SHT31;67759;51.972;5.650;2024-02-23T11:03:38;13.0;49.3
78467;SHT31;67759;51.972;5.650;2024-02-23T11:06:12;13.0;49.2
78467;SHT31;67759;51.972;5.650;2024-02-23T11:08:43;13.0;48.9
78467;SHT31;67759;51.972;5.650;2024-02-23T11:11:11;13.1;49.2
78467;SHT31;67759;51.972;5.650;2024-02-23T11:13:44;13.1;48.9
78467;SHT31;67759;51.972;5.650;2024-02-23T11:16:22;13.1;48.8
78467;SHT31;67759;51.972;5.650;2024-02-23T11:19:08;13.1;48.8
78467;SHT31;67759;51.972;5.650;2024-02-23T11:21:38;13.1;48.9
78467;SHT31;67759;51.972;5.650;2024-02-23T11:24:07;13.1;48.8
78467;SHT31;67759;51.972;5.650;2024-02-23T11:26:37;13.1;48.7
78467;SHT31;67759;51.972;5.650;2024-02-23T11:29:12;13.1;48.7
78467;SHT31;67759;51.972;5.650;2024-02-23T11:31:46;13.1;48.9
78467;SHT31;67759;51.972;5.650;2024-02-23T11:34:23;13.1;49.0
78467;SHT31;67759;51.972;5.650;2024-02-23T11:36:53;13.1;49.1
78467;SHT31;67759;51.972;5.650;2024-02-23T11:39:22;13.1;49.5
78467;SHT31;67759;51.972;5.650;2024-02-23T11:41:51;13.2;49.7
78467;SHT31;67759;51.972;5.650;2024-02-23T11:44:20;13.3;49.2
78467;SHT31;67759;51.972;5.650;2024-02-23T11:46:51;13.6;49.0
78467;SHT31;67759;51.972;5.650;2024-02-23T11:49:20;13.8;48.0
78467;SHT31;67759;51.972;5.650;2024-02-23T11:51:49;13.9;47.8
78467;SHT31;67759;51.972;5.650;2024-02-23T11:54:21;14.0;47.4
78467;SHT31;67759;51.972;5.650;2024-02-23T11:56:51;14.0;46.9
78467;SHT31;67759;51.972;5.650;2024-02-23T11:59:20;14.0;47.1
78467;SHT31;67759;51.972;5.650;2024-02-23T12:01:49;14.0;47.3
78467;SHT31;67759;51.972;5.650;2024-02-23T12:04:18;14.0;46.5
78467;SHT31;67759;51.972;5.650;2024-02-23T12:06:47;14.0;47.0
78467;SHT31;67759;51.972;5.650;2024-02-23T12:09:16;14.0;47.4
78467;SHT31;67759;51.972;5.650;2024-02-23T12:11:45;14.0;46.9
78467;SHT31;67759;51.972;5.650;2024-02-23T12:14:14;14.0;47.1
78467;SHT31;67759;51.972;5.650;2024-02-23T12:16:46;14.0;47.0
78467;SHT31;67759;51.972;5.650;2024-02-23T12:19:15;14.0;47.2
78467;SHT31;67759;51.972;5.650;2024-02-23T12:21:48;14.0;47.1
78467;SHT31;67759;51.972;5.650;2024-02-23T12:24:17;14.1;46.5
78467;SHT31;67759;51.972;5.650;2024-02-23T12:26:55;14.1;46.3
78467;SHT31;67759;51.972;5.650;2024-02-23T12:29:24;14.1;46.7
78467;SHT31;67759;51.972;5.650;2024-02-23T12:32:06;14.1;46.9
78467;SHT31;67759;51.972;5.650;2024-02-23T12:34:35;14.1;46.9
78467;SHT31;67759;51.972;5.650;2024-02-23T12:37:04;14.1;47.2
78467;SHT31;67759;51.972;5.650;2024-02-23T12:39:35;14.1;47.2
78467;SHT31;67759;51.972;5.650;2024-02-23T12:42:04;14.2;46.9
78467;SHT31;67759;51.972;5.650;2024-02-23T12:44:33;14.3;47.3
78467;SHT31;67759;51.972;5.650;2024-02-23T12:47:02;14.4;47.2
78467;SHT31;67759;51.972;5.650;2024-02-23T12:49:31;14.5;46.6
78467;SHT31;67759;51.972;5.650;2024-02-23T12:52:00;14.6;45.9
78467;SHT31;67759;51.972;5.650;2024-02-23T12:54:28;14.7;46.0
78467;SHT31;67759;51.972;5.650;2024-02-23T12:56:57;14.7;45.3
78467;SHT31;67759;51.972;5.650;2024-02-23T12:59:25;14.8;45.4
78467;SHT31;67759;51.972;5.650;2024-02-23T13:01:54;14.8;44.8
78467;SHT31;67759;51.972;5.650;2024-02-23T13:04:23;14.9;45.0
78467;SHT31;67759;51.972;5.650;2024-02-23T13:06:54;14.9;45.1
78467;SHT31;67759;51.972;5.650;2024-02-23T13:09:24;14.9;45.1
78467;SHT31;67759;51.972;5.650;2024-02-23T13:11:53;14.9;44.4
78467;SHT31;67759;51.972;5.650;2024-02-23T13:14:21;14.9;44.9
78467;SHT31;67759;51.972;5.650;2024-02-23T13:16:50;14.9;45.3
78467;SHT31;67759;51.972;5.650;2024-02-23T13:19:18;15.0;44.3
78467;SHT31;67759;51.972;5.650;2024-02-23T13:21:47;15.0;44.9
78467;SHT31;67759;51.972;5.650;2024-02-23T13:24:15;15.0;45.3
78467;SHT31;67759;51.972;5.650;2024-02-23T13:26:44;15.1;43.7
78467;SHT31;67759;51.972;5.650;2024-02-23T13:29:12;15.1;43.2
78467;SHT31;67759;51.972;5.650;2024-02-23T13:31:41;15.1;42.9
78467;SHT31;67759;51.972;5.650;2024-02-23T13:34:10;15.2;43.4
78467;SHT31;67759;51.972;5.650;2024-02-23T13:36:42;15.2;44.0
78467;SHT31;67759;51.972;5.650;2024-02-23T13:39:13;15.4;42.9
78467;SHT31;67759;51.972;5.650;2024-02-23T13:41:41;15.4;42.6
78467;SHT31;67759;51.972;5.650;2024-02-23T13:44:09;15.4;42.7
78467;SHT31;67759;51.972;5.650;2024-02-23T13:46:38;15.4;43.1
78467;SHT31;67759;51.972;5.650;2024-02-23T13:49:07;15.5;42.2
78467;SHT31;67759;51.972;5.650;2024-02-23T13:51:40;15.5;42.2
78467;SHT31;67759;51.972;5.650;2024-02-23T13:54:09;15.4;42.2
78467;SHT31;67759;51.972;5.650;2024-02-23T13:56:37;15.4;42.0
78467;SHT31;67759;51.972;5.650;2024-02-23T13:59:06;15.4;42.9
78467;SHT31;67759;51.972;5.650;2024-02-23T14:01:35;15.4;42.4
78467;SHT31;67759;51.972;5.650;2024-02-23T14:04:06;15.3;42.9
78467;SHT31;67759;51.972;5.650;2024-02-23T14:06:35;15.3;42.9
78467;SHT31;67759;51.972;5.650;2024-02-23T14:09:03;15.4;43.6
78467;SHT31;67759;51.972;5.650;2024-02-23T14:11:32;15.4;42.9
78467;SHT31;67759;51.972;5.650;2024-02-23T14:14:01;15.4;42.8
78467;SHT31;67759;51.972;5.650;2024-02-23T14:16:30;15.4;42.7
78467;SHT31;67759;51.972;5.650;2024-02-23T14:18:58;15.4;42.9
78467;SHT31;67759;51.972;5.650;2024-02-23T14:21:27;15.5;42.2
78467;SHT31;67759;51.972;5.650;2024-02-23T14:23:56;15.5;42.9
78467;SHT31;67759;51.972;5.650;2024-02-23T14:26:24;15.5;42.9
78467;SHT31;67759;51.972;5.650;2024-02-23T14:28:53;15.5;42.8
78467;SHT31;67759;51.972;5.650;2024-02-23T14:31:22;15.5;42.2
78467;SHT31;67759;51.972;5.650;2024-02-23T14:33:50;15.5;42.6
78467;SHT31;67759;51.972;5.650;2024-02-23T14:36:19;15.6;42.6
78467;SHT31;67759;51.972;5.650;2024-02-23T14:38:48;15.6;42.7
78467;SHT31;67759;51.972;5.650;2024-02-23T14:41:17;15.6;42.4
78467;SHT31;67759;51.972;5.650;2024-02-23T14:43:46;15.6;43.0
78467;SHT31;67759;51.972;5.650;2024-02-23T14:46:14;15.6;43.1
78467;SHT31;67759;51.972;5.650;2024-02-23T14:48:43;15.6;42.4
78467;SHT31;67759;51.972;5.650;2024-02-23T14:51:15;15.7;43.0
78467;SHT31;67759;51.972;5.650;2024-02-23T14:53:45;15.7;43.5
78467;SHT31;67759;51.972;5.650;2024-02-23T14:56:13;15.6;43.9
78467;SHT31;67759;51.972;5.650;2024-02-23T14:58:42;15.6;44.4
78467;SHT31;67759;51.972;5.650;2024-02-23T15:01:12;15.6;44.2
78467;SHT31;67759;51.972;5.650;2024-02-23T15:03:40;15.5;44.4
78467;SHT31;67759;51.972;5.650;2024-02-23T15:06:09;15.4;44.4
78467;SHT31;67759;51.972;5.650;2024-02-23T15:08:38;15.3;45.1
78467;SHT31;67759;51.972;5.650;2024-02-23T15:11:07;15.2;44.9
78467;SHT31;67759;51.972;5.650;2024-02-23T15:13:36;15.1;45.6
78467;SHT31;67759;51.972;5.650;2024-02-23T15:16:08;15.0;45.7
78467;SHT31;67759;51.972;5.650;2024-02-23T15:18:38;14.9;46.0
78467;SHT31;67759;51.972;5.650;2024-02-23T15:21:08;14.8;46.5
78467;SHT31;67759;51.972;5.650;2024-02-23T15:23:38;14.7;48.3
78467;SHT31;67759;51.972;5.650;2024-02-23T15:26:11;14.6;49.0
78467;SHT31;67759;51.972;5.650;2024-02-23T15:28:44;14.7;49.1
78467;SHT31;67759;51.972;5.650;2024-02-23T15:31:13;14.6;50.3
78467;SHT31;67759;51.972;5.650;2024-02-23T15:33:42;14.5;50.7
78467;SHT31;67759;51.972;5.650;2024-02-23T15:36:11;14.4;50.6
78467;SHT31;67759;51.972;5.650;2024-02-23T15:38:44;14.3;50.2
78467;SHT31;67759;51.972;5.650;2024-02-23T15:41:12;14.3;51.6
78467;SHT31;67759;51.972;5.650;2024-02-23T15:43:41;14.3;51.5
78467;SHT31;67759;51.972;5.650;2024-02-23T15:46:10;14.2;51.2
78467;SHT31;67759;51.972;5.650;2024-02-23T15:48:38;14.2;51.6
78467;SHT31;67759;51.972;5.650;2024-02-23T15:51:07;14.2;51.0
78467;SHT31;67759;51.972;5.650;2024-02-23T15:53:35;14.2;50.5
78467;SHT31;67759;51.972;5.650;2024-02-23T15:56:04;14.2;50.0
78467;SHT31;67759;51.972;5.650;2024-02-23T15:58:33;14.1;49.9
78467;SHT31;67759;51.972;5.650;2024-02-23T16:01:01;14.1;49.5
78467;SHT31;67759;51.972;5.650;2024-02-23T16:03:30;14.0;49.0
78467;SHT31;67759;51.972;5.650;2024-02-23T16:05:58;14.0;49.4
78467;SHT31;67759;51.972;5.650;2024-02-23T16:08:41;13.9;49.2
78467;SHT31;67759;51.972;5.650;2024-02-23T16:11:11;13.9;50.2
78467;SHT31;67759;51.972;5.650;2024-02-23T16:13:41;13.8;51.3
78467;SHT31;67759;51.972;5.650;2024-02-23T16:16:11;13.7;53.2
78467;SHT31;67759;51.972;5.650;2024-02-23T16:18:41;13.7;52.9